sensor_id;sensor_type;location;lat;lon;timestamp;pressure;altitude;pressure_sealevel;temperature;humidity
6829;BME280;17930;48.592;8.868;2022-12-18T00:01:49;97869.66;;;-13.24;100.00
6829;BME280;17930;48.592;8.868;2022-12-18T00:04:21;97873.56;;;-13.32;100.00
6829;BME280;17930;48.592;8.868;2022-12-18T00:06:48;97872.06;;;-13.22;100.00
6829;BME280;17930;48.592;8.868;2022-12-18T00:09:15;97877.34;;;-13.39;100.00
6829;BME280;17930;48.592;8.868;2022-12-18T00:11:41;97875.66;;;-13.26;100.00
6829;BME280;17930;48.592;8.868;2022-12-18T00:14:11;97874.16;;;-13.41;100.00
6829;BME280;17930;48.592;8.868;2022-12-18T00:16:39;97876.75;;;-13.55;100.00
6829;BME280;17930;48.592;8.868;2022-12-18T00:19:08;97874.38;;;-13.44;100.00
6829;BME280;17930;48.592;8.868;2022-12-18T00:21:35;97880.66;;;-13.51;100.00
6829;BME280;17930;48.592;8.868;2022-12-18T00:24:02;97886.13;;;-13.59;100.00
6829;BME280;17930;48.592;8.868;2022-12-18T00:26:30;97895.41;;;-13.47;100.00
6829;BME280;17930;48.592;8.868;2022-12-18T00:28:59;97898.59;;;-13.45;100.00
6829;BME280;17930;48.592;8.868;2022-12-18T00:31:26;97893.22;;;-13.26;100.00
6829;BME280;17930;48.592;8.868;2022-12-18T00:33:53;97894.91;;;-13.39;100.00
6829;BME280;17930;48.592;8.868;2022-12-18T00:36:23;97886.41;;;-13.24;100.00
6829;BME280;17930;48.592;8.868;2022-12-18T00:38:51;97887.69;;;-13.07;100.00
6829;BME280;17930;48.592;8.868;2022-12-18T00:41:18;97886.59;;;-13.03;100.00
6829;BME280;17930;48.592;8.868;2022-12-18T00:43:59;97889.81;;;-13.13;100.00
6829;BME280;17930;48.592;8.868;2022-12-18T00:46:25;97873.56;;;-13.32;100.00
6829;BME280;17930;48.592;8.868;2022-12-18T00:48:52;97875.75;;;-13.53;100.00
6829;BME280;17930;48.592;8.868;2022-12-18T00:51:21;97878.16;;;-13.26;100.00
6829;BME280;17930;48.592;8.868;2022-12-18T00:53:48;97879.88;;;-13.27;100.00
6829;BME280;17930;48.592;8.868;2022-12-18T00:56:14;97885.41;;;-13.34;100.00
6829;BME280;17930;48.592;8.868;2022-12-18T00:58:41;97884.78;;;-13.25;100.00
6829;BME280;17930;48.592;8.868;2022-12-18T01:01:08;97886.78;;;-13.43;100.00
6829;BME280;17930;48.592;8.868;2022-12-18T01:03:34;97891.06;;;-13.45;100.00
6829;BME280;17930;48.592;8.868;2022-12-18T01:06:05;97890.28;;;-13.45;100.00
6829;BME280;17930;48.592;8.868;2022-12-18T01:08:34;97886.75;;;-13.55;100.00
6829;BME280;17930;48.592;8.868;2022-12-18T01:11:01;97884.94;;;-13.53;100.00
6829;BME280;17930;48.592;8.868;2022-12-18T01:13:27;97891.44;;;-13.63;100.00
6829;BME280;17930;48.592;8.868;2022-12-18T01:15:54;97889.59;;;-13.47;100.00
6829;BME280;17930;48.592;8.868;2022-12-18T01:18:21;97888.38;;;-13.42;100.00
6829;BME280;17930;48.592;8.868;2022-12-18T01:20:47;97893.59;;;-13.45;100.00
6829;BME280;17930;48.592;8.868;2022-12-18T01:23:14;97887.59;;;-13.42;100.00
6829;BME280;17930;48.592;8.868;2022-12-18T01:25:42;97891.09;;;-13.57;100.00
6829;BME280;17930;48.592;8.868;2022-12-18T01:28:09;97891.72;;;-13.29;100.00
6829;BME280;17930;48.592;8.868;2022-12-18T01:30:36;97885.19;;;-13.31;100.00
6829;BME280;17930;48.592;8.868;2022-12-18T01:33:03;97895.16;;;-13.17;100.00
6829;BME280;17930;48.592;8.868;2022-12-18T01:35:30;97892.41;;;-13.27;100.00
6829;BME280;17930;48.592;8.868;2022-12-18T01:37:57;97890.41;;;-13.10;100.00
6829;BME280;17930;48.592;8.868;2022-12-18T01:40:24;97895.03;;;-13.04;100.00
6829;BME280;17930;48.592;8.868;2022-12-18T01:42:52;97894.03;;;-12.89;100.00
6829;BME280;17930;48.592;8.868;2022-12-18T01:45:25;97909.84;;;-12.76;100.00
6829;BME280;17930;48.592;8.868;2022-12-18T01:47:54;97904.72;;;-12.50;100.00
6829;BME280;17930;48.592;8.868;2022-12-18T01:50:23;97898.00;;;-12.26;100.00
6829;BME280;17930;48.592;8.868;2022-12-18T01:52:53;97894.28;;;-12.20;100.00
6829;BME280;17930;48.592;8.868;2022-12-18T01:55:22;97894.00;;;-12.28;100.00
6829;BME280;17930;48.592;8.868;2022-12-18T01:57:52;97897.00;;;-12.23;100.00
6829;BME280;17930;48.592;8.868;2022-12-18T02:00:22;97900.47;;;-12.13;100.00
6829;BME280;17930;48.592;8.868;2022-12-18T02:02:49;97891.63;;;-12.07;100.00
6829;BME280;17930;48.592;8.868;2022-12-18T02:05:19;97890.56;;;-11.92;100.00
6829;BME280;17930;48.592;8.868;2022-12-18T02:07:58;97885.75;;;-11.95;100.00
6829;BME280;17930;48.592;8.868;2022-12-18T02:10:31;97891.59;;;-11.94;100.00
6829;BME280;17930;48.592;8.868;2022-12-18T02:13:08;97894.25;;;-11.85;100.00
6829;BME280;17930;48.592;8.868;2022-12-18T02:15:41;97895.75;;;-11.59;100.00
6829;BME280;17930;48.592;8.868;2022-12-18T02:18:13;97892.28;;;-11.69;100.00
6829;BME280;17930;48.592;8.868;2022-12-18T02:20:46;97886.38;;;-11.57;100.00
6829;BME280;17930;48.592;8.868;2022-12-18T02:23:31;97884.56;;;-11.78;100.00
6829;BME280;17930;48.592;8.868;2022-12-18T02:26:20;97884.41;;;-11.64;100.00
6829;BME280;17930;48.592;8.868;2022-12-18T02:28:52;97885.56;;;-11.58;100.00
6829;BME280;17930;48.592;8.868;2022-12-18T02:31:23;97888.69;;;-11.43;100.00
6829;BME280;17930;48.592;8.868;2022-12-18T02:33:56;97896.91;;;-11.41;100.00
6829;BME280;17930;48.592;8.868;2022-12-18T02:36:26;97891.25;;;-11.21;100.00
6829;BME280;17930;48.592;8.868;2022-12-18T02:38:54;97891.47;;;-11.35;100.00
6829;BME280;17930;48.592;8.868;2022-12-18T02:41:25;97900.09;;;-11.50;100.00
6829;BME280;17930;48.592;8.868;2022-12-18T02:43:55;97900.78;;;-11.48;100.00
6829;BME280;17930;48.592;8.868;2022-12-18T02:46:31;97901.31;;;-11.66;100.00
6829;BME280;17930;48.592;8.868;2022-12-18T02:49:05;97897.84;;;-11.42;100.00
6829;BME280;17930;48.592;8.868;2022-12-18T02:51:40;97892.59;;;-11.39;100.00
6829;BME280;17930;48.592;8.868;2022-12-18T02:54:18;97892.03;;;-11.32;100.00
6829;BME280;17930;48.592;8.868;2022-12-18T02:56:52;97891.22;;;-11.32;100.00
6829;BME280;17930;48.592;8.868;2022-12-18T02:59:24;97888.72;;;-11.21;100.00
6829;BME280;17930;48.592;8.868;2022-12-18T03:01:55;97891.47;;;-11.35;100.00
6829;BME280;17930;48.592;8.868;2022-12-18T03:04:26;97885.16;;;-11.30;100.00
6829;BME280;17930;48.592;8.868;2022-12-18T03:06:57;97895.53;;;-11.45;100.00
6829;BME280;17930;48.592;8.868;2022-12-18T03:09:27;97896.41;;;-11.57;100.00
6829;BME280;17930;48.592;8.868;2022-12-18T03:12:04;97902.84;;;-11.42;100.00
6829;BME280;17930;48.592;8.868;2022-12-18T03:14:50;97901.78;;;-11.16;100.00
6829;BME280;17930;48.592;8.868;2022-12-18T03:17:20;97905.13;;;-11.05;100.00
6829;BME280;17930;48.592;8.868;2022-12-18T03:19:51;97903.06;;;-11.00;100.00
6829;BME280;17930;48.592;8.868;2022-12-18T03:22:20;97905.50;;;-10.99;100.00
6829;BME280;17930;48.592;8.868;2022-12-18T03:24:48;97908.19;;;-11.13;100.00
6829;BME280;17930;48.592;8.868;2022-12-18T03:27:20;97895.63;;;-11.13;100.00
6829;BME280;17930;48.592;8.868;2022-12-18T03:29:52;97899.16;;;-11.15;100.00
6829;BME280;17930;48.592;8.868;2022-12-18T03:32:26;97898.47;;;-11.17;100.00
6829;BME280;17930;48.592;8.868;2022-12-18T03:34:57;97896.03;;;-11.29;100.00
6829;BME280;17930;48.592;8.868;2022-12-18T03:37:26;97898.78;;;-11.21;100.00
6829;BME280;17930;48.592;8.868;2022-12-18T03:40:00;97899.94;;;-11.14;100.00
6829;BME280;17930;48.592;8.868;2022-12-18T03:42:30;97897.69;;;-11.07;100.00
6829;BME280;17930;48.592;8.868;2022-12-18T03:45:06;97894.75;;;-10.68;100.00
6829;BME280;17930;48.592;8.868;2022-12-18T03:47:38;97891.31;;;-10.45;100.00
6829;BME280;17930;48.592;8.868;2022-12-18T03:50:12;97895.69;;;-10.36;100.00
6829;BME280;17930;48.592;8.868;2022-12-18T03:52:46;97889.97;;;-10.49;100.00
6829;BME280;17930;48.592;8.868;2022-12-18T03:55:16;97878.25;;;-10.28;100.00
6829;BME280;17930;48.592;8.868;2022-12-18T03:57:46;97877.25;;;-10.48;100.00
6829;BME280;17930;48.592;8.868;2022-12-18T04:00:17;97882.16;;;-10.57;100.00
6829;BME280;17930;48.592;8.868;2022-12-18T04:02:47;97890.41;;;-10.55;100.00
6829;BME280;17930;48.592;8.868;2022-12-18T04:05:15;97889.03;;;-10.59;100.00
6829;BME280;17930;48.592;8.868;2022-12-18T04:07:43;97890.88;;;-10.61;100.00
6829;BME280;17930;48.592;8.868;2022-12-18T04:10:12;97880.56;;;-10.36;100.00
6829;BME280;17930;48.592;8.868;2022-12-18T04:12:40;97876.59;;;-10.08;100.00
6829;BME280;17930;48.592;8.868;2022-12-18T04:15:09;97873.66;;;-10.12;100.00
6829;BME280;17930;48.592;8.868;2022-12-18T04:17:37;97887.41;;;-10.16;100.00
6829;BME280;17930;48.592;8.868;2022-12-18T04:20:05;97885.78;;;-10.17;100.00
6829;BME280;17930;48.592;8.868;2022-12-18T04:22:31;97888.31;;;-10.07;100.00
6829;BME280;17930;48.592;8.868;2022-12-18T04:24:58;97895.38;;;-10.01;100.00
6829;BME280;17930;48.592;8.868;2022-12-18T04:27:25;97901.81;;;-9.97;100.00
6829;BME280;17930;48.592;8.868;2022-12-18T04:29:52;97897.78;;;-9.99;100.00
6829;BME280;17930;48.592;8.868;2022-12-18T04:32:20;97885.97;;;-9.99;100.00
6829;BME280;17930;48.592;8.868;2022-12-18T04:34:47;97887.59;;;-9.98;100.00
6829;BME280;17930;48.592;8.868;2022-12-18T04:37:13;97870.66;;;-9.55;100.00
6829;BME280;17930;48.592;8.868;2022-12-18T04:39:40;97868.78;;;-9.42;100.00
6829;BME280;17930;48.592;8.868;2022-12-18T04:42:07;97862.06;;;-9.73;100.00
6829;BME280;17930;48.592;8.868;2022-12-18T04:44:33;97865.72;;;-9.77;100.00
6829;BME280;17930;48.592;8.868;2022-12-18T04:47:00;97868.03;;;-9.85;100.00
6829;BME280;17930;48.592;8.868;2022-12-18T04:49:28;97869.69;;;-9.95;100.00
6829;BME280;17930;48.592;8.868;2022-12-18T04:51:55;97866.88;;;-10.01;100.00
6829;BME280;17930;48.592;8.868;2022-12-18T04:54:21;97863.28;;;-9.99;100.00
6829;BME280;17930;48.592;8.868;2022-12-18T04:56:48;97874.75;;;-9.95;100.00
6829;BME280;17930;48.592;8.868;2022-12-18T04:59:15;97879.25;;;-10.09;100.00
6829;BME280;17930;48.592;8.868;2022-12-18T05:01:42;97889.94;;;-10.27;100.00
6829;BME280;17930;48.592;8.868;2022-12-18T05:04:09;97888.78;;;-10.34;100.00
6829;BME280;17930;48.592;8.868;2022-12-18T05:06:37;97890.72;;;-10.27;100.00
6829;BME280;17930;48.592;8.868;2022-12-18T05:09:03;97886.50;;;-10.26;100.00
6829;BME280;17930;48.592;8.868;2022-12-18T05:11:30;97891.31;;;-10.34;100.00
6829;BME280;17930;48.592;8.868;2022-12-18T05:13:57;97887.06;;;-10.23;100.00
6829;BME280;17930;48.592;8.868;2022-12-18T05:16:23;97888.31;;;-10.28;100.00
6829;BME280;17930;48.592;8.868;2022-12-18T05:18:50;97890.97;;;-10.30;100.00
6829;BME280;17930;48.592;8.868;2022-12-18T05:21:17;97887.28;;;-10.26;100.00
6829;BME280;17930;48.592;8.868;2022-12-18T05:23:45;97878.69;;;-10.12;100.00
6829;BME280;17930;48.592;8.868;2022-12-18T05:26:15;97873.66;;;-10.12;100.00
6829;BME280;17930;48.592;8.868;2022-12-18T05:28:42;97877.63;;;-10.10;100.00
6829;BME280;17930;48.592;8.868;2022-12-18T05:31:09;97884.16;;;-9.97;100.00
6829;BME280;17930;48.592;8.868;2022-12-18T05:33:36;97886.22;;;-10.02;100.00
6829;BME280;17930;48.592;8.868;2022-12-18T05:36:05;97884.41;;;-10.00;100.00
6829;BME280;17930;48.592;8.868;2022-12-18T05:38:34;97881.56;;;-9.86;100.00
6829;BME280;17930;48.592;8.868;2022-12-18T05:41:03;97881.66;;;-10.08;100.00
6829;BME280;17930;48.592;8.868;2022-12-18T05:43:30;97886.25;;;-10.12;100.00
6829;BME280;17930;48.592;8.868;2022-12-18T05:45:57;97872.81;;;-10.02;100.00
6829;BME280;17930;48.592;8.868;2022-12-18T05:48:24;97873.84;;;-10.05;100.00
6829;BME280;17930;48.592;8.868;2022-12-18T05:50:51;97871.66;;;-9.98;100.00
6829;BME280;17930;48.592;8.868;2022-12-18T05:53:20;97871.47;;;-9.86;100.00
6829;BME280;17930;48.592;8.868;2022-12-18T05:55:47;97875.16;;;-9.90;100.00
6829;BME280;17930;48.592;8.868;2022-12-18T05:58:15;97876.06;;;-9.80;100.00
6829;BME280;17930;48.592;8.868;2022-12-18T06:00:44;97871.81;;;-9.79;100.00
6829;BME280;17930;48.592;8.868;2022-12-18T06:03:12;97881.00;;;-9.89;100.00
6829;BME280;17930;48.592;8.868;2022-12-18T06:05:40;97880.03;;;-10.09;100.00
6829;BME280;17930;48.592;8.868;2022-12-18T06:08:08;97884.94;;;-9.96;100.00
6829;BME280;17930;48.592;8.868;2022-12-18T06:10:34;97894.75;;;-9.93;100.00
6829;BME280;17930;48.592;8.868;2022-12-18T06:13:01;97898.88;;;-10.12;100.00
6829;BME280;17930;48.592;8.868;2022-12-18T06:15:29;97908.59;;;-10.19;100.00
6829;BME280;17930;48.592;8.868;2022-12-18T06:17:56;97909.84;;;-10.24;100.00
6829;BME280;17930;48.592;8.868;2022-12-18T06:20:23;97917.66;;;-10.16;100.00
6829;BME280;17930;48.592;8.868;2022-12-18T06:22:50;97916.69;;;-10.05;100.00
6829;BME280;17930;48.592;8.868;2022-12-18T06:25:16;97916.63;;;-10.14;100.00
6829;BME280;17930;48.592;8.868;2022-12-18T06:27:43;97919.94;;;-10.24;100.00
6829;BME280;17930;48.592;8.868;2022-12-18T06:30:11;97919.72;;;-10.43;100.00
6829;BME280;17930;48.592;8.868;2022-12-18T06:32:39;97922.47;;;-10.46;100.00
6829;BME280;17930;48.592;8.868;2022-12-18T06:35:07;97925.44;;;-10.52;100.00
6829;BME280;17930;48.592;8.868;2022-12-18T06:37:33;97924.84;;;-10.34;100.00
6829;BME280;17930;48.592;8.868;2022-12-18T06:40:00;97929.78;;;-10.43;100.00
6829;BME280;17930;48.592;8.868;2022-12-18T06:42:28;97934.38;;;-10.37;100.00
6829;BME280;17930;48.592;8.868;2022-12-18T06:44:55;97934.34;;;-10.15;100.00
6829;BME280;17930;48.592;8.868;2022-12-18T06:47:21;97932.31;;;-10.32;100.00
6829;BME280;17930;48.592;8.868;2022-12-18T06:49:49;97933.22;;;-10.22;100.00
6829;BME280;17930;48.592;8.868;2022-12-18T06:52:16;97937.91;;;-10.40;100.00
6829;BME280;17930;48.592;8.868;2022-12-18T06:54:43;97943.63;;;-10.60;100.00
6829;BME280;17930;48.592;8.868;2022-12-18T06:57:09;97940.28;;;-10.71;100.00
6829;BME280;17930;48.592;8.868;2022-12-18T06:59:36;97944.88;;;-10.65;100.00
6829;BME280;17930;48.592;8.868;2022-12-18T07:02:03;97949.88;;;-10.87;100.00
6829;BME280;17930;48.592;8.868;2022-12-18T07:04:30;97949.91;;;-10.76;100.00
6829;BME280;17930;48.592;8.868;2022-12-18T07:06:58;97952.09;;;-10.71;100.00
6829;BME280;17930;48.592;8.868;2022-12-18T07:09:25;97968.00;;;-10.71;100.00
6829;BME280;17930;48.592;8.868;2022-12-18T07:11:51;97961.56;;;-10.86;100.00
6829;BME280;17930;48.592;8.868;2022-12-18T07:14:18;97964.72;;;-10.95;100.00
6829;BME280;17930;48.592;8.868;2022-12-18T07:16:45;97967.00;;;-10.58;100.00
6829;BME280;17930;48.592;8.868;2022-12-18T07:19:11;97970.88;;;-10.64;100.00
6829;BME280;17930;48.592;8.868;2022-12-18T07:21:38;97960.97;;;-10.89;100.00
6829;BME280;17930;48.592;8.868;2022-12-18T07:24:07;97969.78;;;-10.84;100.00
6829;BME280;17930;48.592;8.868;2022-12-18T07:26:33;97962.59;;;-10.88;100.00
6829;BME280;17930;48.592;8.868;2022-12-18T07:29:00;97964.59;;;-10.59;100.00
6829;BME280;17930;48.592;8.868;2022-12-18T07:31:27;97958.41;;;-10.44;100.00
6829;BME280;17930;48.592;8.868;2022-12-18T07:33:54;97956.38;;;-10.39;100.00
6829;BME280;17930;48.592;8.868;2022-12-18T07:36:20;97954.28;;;-10.34;100.00
6829;BME280;17930;48.592;8.868;2022-12-18T07:38:48;97960.25;;;-10.46;100.00
6829;BME280;17930;48.592;8.868;2022-12-18T07:41:16;97962.97;;;-10.38;100.00
6829;BME280;17930;48.592;8.868;2022-12-18T07:43:44;97958.88;;;-10.28;100.00
6829;BME280;17930;48.592;8.868;2022-12-18T07:46:12;97960.47;;;-10.27;100.00
6829;BME280;17930;48.592;8.868;2022-12-18T07:48:40;97957.38;;;-10.20;100.00
6829;BME280;17930;48.592;8.868;2022-12-18T07:51:07;97965.75;;;-10.30;100.00
6829;BME280;17930;48.592;8.868;2022-12-18T07:53:35;97970.56;;;-10.49;100.00
6829;BME280;17930;48.592;8.868;2022-12-18T07:56:04;97976.25;;;-10.58;100.00
6829;BME280;17930;48.592;8.868;2022-12-18T07:58:32;97965.38;;;-10.59;100.00
6829;BME280;17930;48.592;8.868;2022-12-18T08:01:03;97976.03;;;-10.44;100.00
6829;BME280;17930;48.592;8.868;2022-12-18T08:03:30;97972.63;;;-10.32;100.00
6829;BME280;17930;48.592;8.868;2022-12-18T08:05:58;97977.44;;;-10.29;100.00
6829;BME280;17930;48.592;8.868;2022-12-18T08:08:25;97982.47;;;-10.29;100.00
6829;BME280;17930;48.592;8.868;2022-12-18T08:10:52;97979.25;;;-10.20;100.00
6829;BME280;17930;48.592;8.868;2022-12-18T08:13:19;97971.91;;;-10.02;100.00
6829;BME280;17930;48.592;8.868;2022-12-18T08:15:55;97977.53;;;-10.20;100.00
6829;BME280;17930;48.592;8.868;2022-12-18T08:18:22;97974.66;;;-10.15;100.00
6829;BME280;17930;48.592;8.868;2022-12-18T08:20:49;97979.03;;;-10.07;100.00
6829;BME280;17930;48.592;8.868;2022-12-18T08:23:16;97975.13;;;-10.00;100.00
6829;BME280;17930;48.592;8.868;2022-12-18T08:25:42;97979.22;;;-9.88;100.00
6829;BME280;17930;48.592;8.868;2022-12-18T08:28:09;97980.72;;;-9.96;100.00
6829;BME280;17930;48.592;8.868;2022-12-18T08:30:36;97984.91;;;-9.86;100.00
6829;BME280;17930;48.592;8.868;2022-12-18T08:33:05;97969.88;;;-9.55;100.00
6829;BME280;17930;48.592;8.868;2022-12-18T08:35:35;97973.47;;;-9.37;100.00
6829;BME280;17930;48.592;8.868;2022-12-18T08:38:01;97983.06;;;-9.62;100.00
6829;BME280;17930;48.592;8.868;2022-12-18T08:40:28;97980.91;;;-9.35;100.00
6829;BME280;17930;48.592;8.868;2022-12-18T08:42:55;97982.06;;;-9.39;100.00
6829;BME280;17930;48.592;8.868;2022-12-18T08:45:39;97968.69;;;-9.19;100.00
6829;BME280;17930;48.592;8.868;2022-12-18T08:48:10;97972.22;;;-9.42;100.00
6829;BME280;17930;48.592;8.868;2022-12-18T08:50:37;97957.19;;;-9.33;100.00
6829;BME280;17930;48.592;8.868;2022-12-18T08:53:04;97956.81;;;-9.28;100.00
6829;BME280;17930;48.592;8.868;2022-12-18T08:55:31;97959.53;;;-9.20;100.00
6829;BME280;17930;48.592;8.868;2022-12-18T08:57:57;97957.25;;;-9.23;100.00
6829;BME280;17930;48.592;8.868;2022-12-18T09:00:24;97957.88;;;-9.11;100.00
6829;BME280;17930;48.592;8.868;2022-12-18T09:02:51;97959.44;;;-8.58;100.00
6829;BME280;17930;48.592;8.868;2022-12-18T09:05:19;97958.44;;;-8.07;100.00
6829;BME280;17930;48.592;8.868;2022-12-18T09:07:45;97955.59;;;-7.84;100.00
6829;BME280;17930;48.592;8.868;2022-12-18T09:10:12;97947.72;;;-8.29;100.00
6829;BME280;17930;48.592;8.868;2022-12-18T09:12:39;97950.50;;;-8.62;100.00
6829;BME280;17930;48.592;8.868;2022-12-18T09:15:06;97943.91;;;-8.54;100.00
6829;BME280;17930;48.592;8.868;2022-12-18T09:17:33;97948.81;;;-8.32;100.00
6829;BME280;17930;48.592;8.868;2022-12-18T09:19:59;97948.25;;;-8.35;100.00
6829;BME280;17930;48.592;8.868;2022-12-18T09:22:27;97947.22;;;-8.23;100.00
6829;BME280;17930;48.592;8.868;2022-12-18T09:24:54;97945.84;;;-7.88;100.00
6829;BME280;17930;48.592;8.868;2022-12-18T09:27:21;97947.88;;;-7.73;100.00
6829;BME280;17930;48.592;8.868;2022-12-18T09:29:48;97944.63;;;-8.03;100.00
6829;BME280;17930;48.592;8.868;2022-12-18T09:32:15;97950.09;;;-8.37;100.00
6829;BME280;17930;48.592;8.868;2022-12-18T09:34:41;97942.03;;;-8.52;100.00
6829;BME280;17930;48.592;8.868;2022-12-18T09:37:08;97945.78;;;-8.46;100.00
6829;BME280;17930;48.592;8.868;2022-12-18T09:39:36;97942.03;;;-8.52;100.00
6829;BME280;17930;48.592;8.868;2022-12-18T09:42:04;97948.88;;;-8.63;100.00
6829;BME280;17930;48.592;8.868;2022-12-18T09:44:35;97948.22;;;-8.65;100.00
6829;BME280;17930;48.592;8.868;2022-12-18T09:47:07;97947.66;;;-8.48;100.00
6829;BME280;17930;48.592;8.868;2022-12-18T09:49:40;97945.66;;;-8.06;100.00
6829;BME280;17930;48.592;8.868;2022-12-18T09:52:12;97948.31;;;-8.16;100.00
6829;BME280;17930;48.592;8.868;2022-12-18T09:54:44;97948.03;;;-8.23;100.00
6829;BME280;17930;48.592;8.868;2022-12-18T09:57:14;97942.59;;;-8.18;100.00
6829;BME280;17930;48.592;8.868;2022-12-18T09:59:47;97948.09;;;-7.95;100.00
6829;BME280;17930;48.592;8.868;2022-12-18T10:02:17;97953.91;;;-8.04;100.00
6829;BME280;17930;48.592;8.868;2022-12-18T10:04:46;97945.25;;;-8.11;100.00
6829;BME280;17930;48.592;8.868;2022-12-18T10:07:19;97947.31;;;-7.86;100.00
6829;BME280;17930;48.592;8.868;2022-12-18T10:09:55;97949.88;;;-7.67;100.00
6829;BME280;17930;48.592;8.868;2022-12-18T10:12:28;97948.47;;;-7.51;100.00
6829;BME280;17930;48.592;8.868;2022-12-18T10:15:01;97940.22;;;-7.43;100.00
6829;BME280;17930;48.592;8.868;2022-12-18T10:17:36;97933.69;;;-7.36;100.00
6829;BME280;17930;48.592;8.868;2022-12-18T10:20:12;97938.75;;;-7.55;100.00
6829;BME280;17930;48.592;8.868;2022-12-18T10:22:50;97944.47;;;-7.62;100.00
6829;BME280;17930;48.592;8.868;2022-12-18T10:25:24;97947.53;;;-7.59;100.00
6829;BME280;17930;48.592;8.868;2022-12-18T10:27:54;97931.28;;;-7.19;100.00
6829;BME280;17930;48.592;8.868;2022-12-18T10:30:23;97927.84;;;-7.09;100.00
6829;BME280;17930;48.592;8.868;2022-12-18T10:32:51;97925.78;;;-6.77;100.00
6829;BME280;17930;48.592;8.868;2022-12-18T10:35:20;97923.66;;;-6.72;100.00
6829;BME280;17930;48.592;8.868;2022-12-18T10:38:05;97923.28;;;-6.31;100.00
6829;BME280;17930;48.592;8.868;2022-12-18T10:40:47;97925.00;;;-6.41;100.00
6829;BME280;17930;48.592;8.868;2022-12-18T10:43:16;97926.94;;;-6.16;100.00
6829;BME280;17930;48.592;8.868;2022-12-18T10:46:02;97923.81;;;-6.37;100.00
6829;BME280;17930;48.592;8.868;2022-12-18T10:48:30;97921.56;;;-6.04;100.00
6829;BME280;17930;48.592;8.868;2022-12-18T10:50:59;97917.59;;;-5.89;100.00
6829;BME280;17930;48.592;8.868;2022-12-18T10:53:28;97908.50;;;-5.48;100.00
6829;BME280;17930;48.592;8.868;2022-12-18T10:55:58;97903.06;;;-5.35;100.00
6829;BME280;17930;48.592;8.868;2022-12-18T10:58:26;97897.75;;;-5.59;100.00
6829;BME280;17930;48.592;8.868;2022-12-18T11:01:06;97896.22;;;-5.35;100.00
6829;BME280;17930;48.592;8.868;2022-12-18T11:03:36;97894.41;;;-5.25;100.00
6829;BME280;17930;48.592;8.868;2022-12-18T11:06:05;97894.63;;;-5.01;100.00
6829;BME280;17930;48.592;8.868;2022-12-18T11:08:33;97883.22;;;-5.14;100.00
6829;BME280;17930;48.592;8.868;2022-12-18T11:11:02;97889.91;;;-5.13;100.00
6829;BME280;17930;48.592;8.868;2022-12-18T11:13:31;97893.97;;;-5.20;100.00
6829;BME280;17930;48.592;8.868;2022-12-18T11:15:58;97881.16;;;-4.94;100.00
6829;BME280;17930;48.592;8.868;2022-12-18T11:18:28;97886.66;;;-4.81;100.00
6829;BME280;17930;48.592;8.868;2022-12-18T11:20:56;97894.44;;;-4.57;100.00
6829;BME280;17930;48.592;8.868;2022-12-18T11:23:25;97887.03;;;-4.68;100.00
6829;BME280;17930;48.592;8.868;2022-12-18T11:25:54;97890.38;;;-4.42;100.00
6829;BME280;17930;48.592;8.868;2022-12-18T11:28:29;97873.66;;;-4.11;100.00
6829;BME280;17930;48.592;8.868;2022-12-18T11:31:24;97875.34;;;-3.87;100.00
6829;BME280;17930;48.592;8.868;2022-12-18T11:34:04;97877.63;;;-3.68;100.00
6829;BME280;17930;48.592;8.868;2022-12-18T11:36:38;97862.19;;;-3.51;100.00
6829;BME280;17930;48.592;8.868;2022-12-18T11:39:11;97858.56;;;-3.08;100.00
6829;BME280;17930;48.592;8.868;2022-12-18T11:41:45;97853.56;;;-2.62;100.00
6829;BME280;17930;48.592;8.868;2022-12-18T11:44:40;97854.63;;;-2.41;100.00
6829;BME280;17930;48.592;8.868;2022-12-18T11:47:16;97835.31;;;-1.45;100.00
6829;BME280;17930;48.592;8.868;2022-12-18T11:49:47;97836.72;;;0.02;100.00
6829;BME280;17930;48.592;8.868;2022-12-18T11:52:19;97824.31;;;1.58;100.00
6829;BME280;17930;48.592;8.868;2022-12-18T11:54:51;97823.84;;;2.28;100.00
6829;BME280;17930;48.592;8.868;2022-12-18T11:57:26;97822.81;;;3.21;100.00
6829;BME280;17930;48.592;8.868;2022-12-18T12:00:04;97836.84;;;3.44;100.00
6829;BME280;17930;48.592;8.868;2022-12-18T12:03:21;97832.69;;;3.30;100.00
6829;BME280;17930;48.592;8.868;2022-12-18T12:06:04;97834.84;;;2.56;100.00
6829;BME280;17930;48.592;8.868;2022-12-18T12:08:44;97825.50;;;2.55;100.00
6829;BME280;17930;48.592;8.868;2022-12-18T12:11:24;97821.91;;;2.30;100.00
6829;BME280;17930;48.592;8.868;2022-12-18T12:14:12;97823.66;;;1.77;100.00
6829;BME280;17930;48.592;8.868;2022-12-18T12:16:48;97822.16;;;2.02;100.00
6829;BME280;17930;48.592;8.868;2022-12-18T12:19:29;97812.63;;;2.42;100.00
6829;BME280;17930;48.592;8.868;2022-12-18T12:22:13;97822.75;;;2.56;100.00
6829;BME280;17930;48.592;8.868;2022-12-18T12:24:53;97810.91;;;2.68;100.00
6829;BME280;17930;48.592;8.868;2022-12-18T12:27:33;97810.66;;;2.57;100.00
6829;BME280;17930;48.592;8.868;2022-12-18T12:30:05;97818.09;;;1.73;100.00
6829;BME280;17930;48.592;8.868;2022-12-18T12:32:45;97810.72;;;2.04;100.00
6829;BME280;17930;48.592;8.868;2022-12-18T12:35:25;97816.53;;;1.79;100.00
6829;BME280;17930;48.592;8.868;2022-12-18T12:38:03;97829.16;;;1.13;100.00
6829;BME280;17930;48.592;8.868;2022-12-18T12:40:35;97830.94;;;0.92;100.00
6829;BME280;17930;48.592;8.868;2022-12-18T12:43:04;97821.41;;;0.86;100.00
6829;BME280;17930;48.592;8.868;2022-12-18T12:45:42;97825.97;;;0.63;100.00
6829;BME280;17930;48.592;8.868;2022-12-18T12:48:17;97841.91;;;0.23;100.00
6829;BME280;17930;48.592;8.868;2022-12-18T12:50:46;97838.75;;;0.07;100.00
6829;BME280;17930;48.592;8.868;2022-12-18T12:53:21;97831.44;;;-0.10;100.00
6829;BME280;17930;48.592;8.868;2022-12-18T12:55:50;97840.63;;;-0.02;100.00
6829;BME280;17930;48.592;8.868;2022-12-18T12:58:24;97844.47;;;0.23;100.00
6829;BME280;17930;48.592;8.868;2022-12-18T13:01:04;97854.44;;;-0.02;100.00
6829;BME280;17930;48.592;8.868;2022-12-18T13:03:43;97866.06;;;-0.72;100.00
6829;BME280;17930;48.592;8.868;2022-12-18T13:06:18;97857.53;;;-0.36;100.00
6829;BME280;17930;48.592;8.868;2022-12-18T13:08:55;97854.50;;;-0.10;100.00
6829;BME280;17930;48.592;8.868;2022-12-18T13:11:36;97853.72;;;0.03;100.00